sensor_id;sensor_type;location;lat;lon;timestamp;pressure;altitude;pressure_sealevel;temperature;humidity
71966;BME280;59836;52.132;5.442;2023-11-19T00:02:23;100777.34;;;11.43;100.00
71966;BME280;59836;52.132;5.442;2023-11-19T00:04:57;100771.13;;;11.43;100.00
71966;BME280;59836;52.132;5.442;2023-11-19T00:07:24;100780.06;;;11.43;100.00
71966;BME280;59836;52.132;5.442;2023-11-19T00:10:00;100773.00;;;11.42;100.00
71966;BME280;59836;52.132;5.442;2023-11-19T00:12:38;100772.22;;;11.42;100.00
71966;BME280;59836;52.132;5.442;2023-11-19T00:15:07;100764.59;;;11.44;100.00
71966;BME280;59836;52.132;5.442;2023-11-19T00:17:42;100761.59;;;11.45;100.00
71966;BME280;59836;52.132;5.442;2023-11-19T00:20:12;100770.28;;;11.47;100.00
71966;BME280;59836;52.132;5.442;2023-11-19T00:22:39;100756.16;;;11.45;100.00
71966;BME280;59836;52.132;5.442;2023-11-19T00:25:15;100766.22;;;11.45;100.00
71966;BME280;59836;52.132;5.442;2023-11-19T00:27:41;100766.22;;;11.45;100.00
71966;BME280;59836;52.132;5.442;2023-11-19T00:30:11;100751.56;;;11.46;100.00
71966;BME280;59836;52.132;5.442;2023-11-19T00:32:37;100749.94;;;11.45;100.00
71966;BME280;59836;52.132;5.442;2023-11-19T00:35:06;100750.72;;;11.45;100.00
71966;BME280;59836;52.132;5.442;2023-11-19T00:37:33;100741.50;;;11.46;100.00
71966;BME280;59836;52.132;5.442;2023-11-19T00:40:00;100741.50;;;11.46;100.00
71966;BME280;59836;52.132;5.442;2023-11-19T00:42:27;100744.22;;;11.46;100.00
71966;BME280;59836;52.132;5.442;2023-11-19T00:44:53;100741.50;;;11.46;100.00
71966;BME280;59836;52.132;5.442;2023-11-19T00:47:20;100738.50;;;11.48;100.00
71966;BME280;59836;52.132;5.442;2023-11-19T00:49:47;100742.56;;;11.50;100.00
71966;BME280;59836;52.132;5.442;2023-11-19T00:52:17;100731.69;;;11.50;100.00
71966;BME280;59836;52.132;5.442;2023-11-19T00:54:44;100725.47;;;11.50;100.00
71966;BME280;59836;52.132;5.442;2023-11-19T00:57:11;100719.75;;;11.51;100.00
71966;BME280;59836;52.132;5.442;2023-11-19T00:59:37;100733.31;;;11.51;100.00
71966;BME280;59836;52.132;5.442;2023-11-19T01:02:04;100729.78;;;11.56;100.00
71966;BME280;59836;52.132;5.442;2023-11-19T01:04:36;100738.19;;;11.55;100.00
71966;BME280;59836;52.132;5.442;2023-11-19T01:07:03;100740.38;;;11.52;100.00
71966;BME280;59836;52.132;5.442;2023-11-19T01:09:34;100732.22;;;11.52;100.00
71966;BME280;59836;52.132;5.442;2023-11-19T01:12:02;100736.88;;;11.52;100.00
71966;BME280;59836;52.132;5.442;2023-11-19T01:14:29;100734.16;;;11.52;100.00
71966;BME280;59836;52.132;5.442;2023-11-19T01:16:57;100733.84;;;11.54;100.00
71966;BME280;59836;52.132;5.442;2023-11-19T01:19:24;100725.72;;;11.54;100.00
71966;BME280;59836;52.132;5.442;2023-11-19T01:21:51;100735.47;;;11.55;100.00
71966;BME280;59836;52.132;5.442;2023-11-19T01:24:17;100718.63;;;11.58;100.00
71966;BME280;59836;52.132;5.442;2023-11-19T01:26:44;100713.72;;;11.60;100.00
71966;BME280;59836;52.132;5.442;2023-11-19T01:29:12;100707.50;;;11.59;100.00
71966;BME280;59836;52.132;5.442;2023-11-19T01:31:42;100696.63;;;11.59;100.00
71966;BME280;59836;52.132;5.442;2023-11-19T01:34:10;100692.56;;;11.57;100.00
71966;BME280;59836;52.132;5.442;2023-11-19T01:36:38;100716.75;;;11.58;100.00
71966;BME280;59836;52.132;5.442;2023-11-19T01:39:06;100705.03;;;11.58;100.00
71966;BME280;59836;52.132;5.442;2023-11-19T01:41:36;100705.88;;;11.58;100.00
71966;BME280;59836;52.132;5.442;2023-11-19T01:44:03;100708.28;;;11.60;100.00
71966;BME280;59836;52.132;5.442;2023-11-19T01:46:30;100695.25;;;11.62;100.00
71966;BME280;59836;52.132;5.442;2023-11-19T01:48:59;100709.38;;;11.64;100.00
71966;BME280;59836;52.132;5.442;2023-11-19T01:51:27;100709.91;;;11.61;100.00
71966;BME280;59836;52.132;5.442;2023-11-19T01:53:54;100713.16;;;11.63;100.00
71966;BME280;59836;52.132;5.442;2023-11-19T01:56:22;100713.16;;;11.63;100.00
71966;BME280;59836;52.132;5.442;2023-11-19T01:58:49;100713.47;;;11.61;100.00
71966;BME280;59836;52.132;5.442;2023-11-19T02:01:16;100712.38;;;11.62;100.00
71966;BME280;59836;52.132;5.442;2023-11-19T02:03:43;100721.31;;;11.63;100.00
71966;BME280;59836;52.132;5.442;2023-11-19T02:06:09;100711.53;;;11.62;100.00
71966;BME280;59836;52.132;5.442;2023-11-19T02:08:37;100705.31;;;11.61;100.00
71966;BME280;59836;52.132;5.442;2023-11-19T02:11:05;100697.97;;;11.62;100.00
71966;BME280;59836;52.132;5.442;2023-11-19T02:13:33;100688.19;;;11.61;100.00
71966;BME280;59836;52.132;5.442;2023-11-19T02:16:02;100696.34;;;11.61;100.00
71966;BME280;59836;52.132;5.442;2023-11-19T02:18:30;100697.16;;;11.61;100.00
71966;BME280;59836;52.132;5.442;2023-11-19T02:20:57;100693.91;;;11.59;100.00
71966;BME280;59836;52.132;5.442;2023-11-19T02:23:26;100705.88;;;11.58;100.00
71966;BME280;59836;52.132;5.442;2023-11-19T02:26:14;100724.34;;;11.56;100.00
71966;BME280;59836;52.132;5.442;2023-11-19T02:28:42;100720.28;;;11.54;100.00
71966;BME280;59836;52.132;5.442;2023-11-19T02:31:10;100721.38;;;11.52;100.00
71966;BME280;59836;52.132;5.442;2023-11-19T02:33:38;100727.91;;;11.51;100.00
71966;BME280;59836;52.132;5.442;2023-11-19T02:36:06;100728.44;;;11.48;100.00
71966;BME280;59836;52.132;5.442;2023-11-19T02:38:37;100730.06;;;11.49;100.00
71966;BME280;59836;52.132;5.442;2023-11-19T02:41:09;100727.91;;;11.46;100.00
71966;BME280;59836;52.132;5.442;2023-11-19T02:43:37;100717.06;;;11.46;100.00
71966;BME280;59836;52.132;5.442;2023-11-19T02:46:18;100716.50;;;11.44;100.00
71966;BME280;59836;52.132;5.442;2023-11-19T02:48:59;100707.84;;;11.42;100.00
71966;BME280;59836;52.132;5.442;2023-11-19T02:51:25;100697.25;;;11.41;100.00
71966;BME280;59836;52.132;5.442;2023-11-19T02:53:56;100695.91;;;11.38;100.00
71966;BME280;59836;52.132;5.442;2023-11-19T02:56:22;100706.78;;;11.38;100.00
71966;BME280;59836;52.132;5.442;2023-11-19T02:58:52;100711.41;;;11.37;100.00
71966;BME280;59836;52.132;5.442;2023-11-19T03:01:46;100714.38;;;11.36;100.00
71966;BME280;59836;52.132;5.442;2023-11-19T03:04:47;100707.31;;;11.35;100.00
71966;BME280;59836;52.132;5.442;2023-11-19T03:07:19;100711.13;;;11.34;100.00
71966;BME280;59836;52.132;5.442;2023-11-19T03:09:45;100711.69;;;11.31;100.00
71966;BME280;59836;52.132;5.442;2023-11-19T03:12:12;100704.63;;;11.30;100.00
71966;BME280;59836;52.132;5.442;2023-11-19T03:14:38;100706.81;;;11.28;100.00
71966;BME280;59836;52.132;5.442;2023-11-19T03:17:05;100712.25;;;11.28;100.00
71966;BME280;59836;52.132;5.442;2023-11-19T03:19:41;100714.41;;;11.26;100.00
71966;BME280;59836;52.132;5.442;2023-11-19T03:22:08;100718.22;;;11.25;100.00
71966;BME280;59836;52.132;5.442;2023-11-19T03:24:37;100709.53;;;11.22;100.00
71966;BME280;59836;52.132;5.442;2023-11-19T03:27:14;100717.97;;;11.21;100.00
71966;BME280;59836;52.132;5.442;2023-11-19T03:29:44;100714.44;;;11.20;100.00
71966;BME280;59836;52.132;5.442;2023-11-19T03:32:27;100709.28;;;11.19;100.00
71966;BME280;59836;52.132;5.442;2023-11-19T03:34:54;100713.09;;;11.18;100.00
71966;BME280;59836;52.132;5.442;2023-11-19T03:37:21;100698.16;;;11.15;100.00
71966;BME280;59836;52.132;5.442;2023-11-19T03:39:48;100700.34;;;11.13;100.00
71966;BME280;59836;52.132;5.442;2023-11-19T03:42:19;100694.41;;;11.11;100.00
71966;BME280;59836;52.132;5.442;2023-11-19T03:45:01;100686.25;;;11.11;100.00
71966;BME280;59836;52.132;5.442;2023-11-19T03:47:36;100686.81;;;11.08;100.00
71966;BME280;59836;52.132;5.442;2023-11-19T03:50:03;100698.75;;;11.07;100.00
71966;BME280;59836;52.132;5.442;2023-11-19T03:52:30;100712.34;;;11.07;100.00
71966;BME280;59836;52.132;5.442;2023-11-19T03:55:09;100709.09;;;11.05;100.00
71966;BME280;59836;52.132;5.442;2023-11-19T03:57:36;100718.31;;;11.04;100.00
71966;BME280;59836;52.132;5.442;2023-11-19T04:00:02;100711.53;;;11.01;100.00
71966;BME280;59836;52.132;5.442;2023-11-19T04:02:41;100728.88;;;11.00;100.00
71966;BME280;59836;52.132;5.442;2023-11-19T04:05:08;100716.41;;;10.99;100.00
71966;BME280;59836;52.132;5.442;2023-11-19T04:07:36;100727.00;;;10.96;100.00
71966;BME280;59836;52.132;5.442;2023-11-19T04:10:03;100725.38;;;10.95;100.00
71966;BME280;59836;52.132;5.442;2023-11-19T04:12:29;100734.63;;;10.93;100.00
71966;BME280;59836;52.132;5.442;2023-11-19T04:14:56;100721.59;;;10.90;100.00
71966;BME280;59836;52.132;5.442;2023-11-19T04:17:25;100714.81;;;10.88;100.00
71966;BME280;59836;52.132;5.442;2023-11-19T04:19:52;100718.34;;;10.88;100.00
71966;BME280;59836;52.132;5.442;2023-11-19T04:22:18;100732.44;;;10.90;100.00
71966;BME280;59836;52.132;5.442;2023-11-19T04:24:45;100723.78;;;10.88;100.00
71966;BME280;59836;52.132;5.442;2023-11-19T04:27:12;100728.66;;;10.86;100.00
71966;BME280;59836;52.132;5.442;2023-11-19T04:29:39;100735.44;;;10.84;100.00
71966;BME280;59836;52.132;5.442;2023-11-19T04:32:06;100727.03;;;10.85;100.00
71966;BME280;59836;52.132;5.442;2023-11-19T04:34:34;100730.84;;;10.84;100.00
71966;BME280;59836;52.132;5.442;2023-11-19T04:37:00;100728.13;;;10.84;100.00
71966;BME280;59836;52.132;5.442;2023-11-19T04:39:34;100730.84;;;10.84;100.00
71966;BME280;59836;52.132;5.442;2023-11-19T04:42:01;100723.25;;;10.81;100.00
71966;BME280;59836;52.132;5.442;2023-11-19T04:44:29;100726.75;;;10.82;100.00
71966;BME280;59836;52.132;5.442;2023-11-19T04:46:56;100732.47;;;10.80;100.00
71966;BME280;59836;52.132;5.442;2023-11-19T04:49:25;100743.56;;;10.78;100.00
71966;BME280;59836;52.132;5.442;2023-11-19T04:51:54;100730.84;;;10.79;100.00
71966;BME280;59836;52.132;5.442;2023-11-19T04:54:20;100728.69;;;10.76;100.00
71966;BME280;59836;52.132;5.442;2023-11-19T04:56:47;100725.41;;;10.74;100.00
71966;BME280;59836;52.132;5.442;2023-11-19T04:59:14;100720.00;;;10.74;100.00
71966;BME280;59836;52.132;5.442;2023-11-19T05:01:40;100722.16;;;10.72;100.00
71966;BME280;59836;52.132;5.442;2023-11-19T05:04:07;100723.78;;;10.73;100.00
71966;BME280;59836;52.132;5.442;2023-11-19T05:06:34;100722.16;;;10.72;100.00
71966;BME280;59836;52.132;5.442;2023-11-19T05:09:02;100735.19;;;10.70;100.00
71966;BME280;59836;52.132;5.442;2023-11-19T05:11:51;100743.59;;;10.68;100.00
71966;BME280;59836;52.132;5.442;2023-11-19T05:14:18;100744.97;;;10.66;100.00
71966;BME280;59836;52.132;5.442;2023-11-19T05:16:48;100741.16;;;10.67;100.00
71966;BME280;59836;52.132;5.442;2023-11-19T05:19:15;100744.97;;;10.66;100.00
71966;BME280;59836;52.132;5.442;2023-11-19T05:21:42;100746.59;;;10.67;100.00
71966;BME280;59836;52.132;5.442;2023-11-19T05:24:10;100733.28;;;10.65;100.00
71966;BME280;59836;52.132;5.442;2023-11-19T05:26:38;100729.78;;;10.65;100.00
71966;BME280;59836;52.132;5.442;2023-11-19T05:29:04;100724.34;;;10.65;100.00
71966;BME280;59836;52.132;5.442;2023-11-19T05:31:31;100727.59;;;10.61;100.00
71966;BME280;59836;52.132;5.442;2023-11-19T05:34:02;100739.53;;;10.60;100.00
71966;BME280;59836;52.132;5.442;2023-11-19T05:36:32;100732.78;;;10.58;100.00
71966;BME280;59836;52.132;5.442;2023-11-19T05:39:00;100737.38;;;10.57;100.00
71966;BME280;59836;52.132;5.442;2023-11-19T05:41:26;100731.94;;;10.57;100.00
71966;BME280;59836;52.132;5.442;2023-11-19T05:43:53;100741.44;;;10.55;100.00
71966;BME280;59836;52.132;5.442;2023-11-19T05:46:19;100744.97;;;10.55;100.00
71966;BME280;59836;52.132;5.442;2023-11-19T05:48:47;100740.09;;;10.52;100.00
71966;BME280;59836;52.132;5.442;2023-11-19T05:51:14;100743.88;;;10.51;100.00
71966;BME280;59836;52.132;5.442;2023-11-19T05:53:44;100740.09;;;10.52;100.00
71966;BME280;59836;52.132;5.442;2023-11-19T05:56:12;100744.41;;;10.53;100.00
71966;BME280;59836;52.132;5.442;2023-11-19T05:58:39;100742.25;;;10.50;100.00
71966;BME280;59836;52.132;5.442;2023-11-19T06:01:06;100749.31;;;10.51;100.00
71966;BME280;59836;52.132;5.442;2023-11-19T06:03:34;100747.41;;;10.52;100.00
71966;BME280;59836;52.132;5.442;2023-11-19T06:06:01;100740.63;;;10.49;100.00
71966;BME280;59836;52.132;5.442;2023-11-19T06:08:28;100736.81;;;10.50;100.00
71966;BME280;59836;52.132;5.442;2023-11-19T06:10:55;100747.69;;;10.50;100.00
71966;BME280;59836;52.132;5.442;2023-11-19T06:13:22;100737.38;;;10.52;100.00
71966;BME280;59836;52.132;5.442;2023-11-19T06:15:51;100743.88;;;10.51;100.00
71966;BME280;59836;52.132;5.442;2023-11-19T06:18:17;100732.22;;;10.51;100.00
71966;BME280;59836;52.132;5.442;2023-11-19T06:20:46;100739.81;;;10.48;100.00
71966;BME280;59836;52.132;5.442;2023-11-19T06:23:13;100738.19;;;10.47;100.00
71966;BME280;59836;52.132;5.442;2023-11-19T06:25:39;100745.25;;;10.48;100.00
71966;BME280;59836;52.132;5.442;2023-11-19T06:28:06;100747.41;;;10.46;100.00
71966;BME280;59836;52.132;5.442;2023-11-19T06:30:32;100752.56;;;10.48;100.00
71966;BME280;59836;52.132;5.442;2023-11-19T06:32:59;100757.44;;;10.46;100.00
71966;BME280;59836;52.132;5.442;2023-11-19T06:35:26;100757.44;;;10.46;100.00
71966;BME280;59836;52.132;5.442;2023-11-19T06:37:53;100756.63;;;10.45;100.00
71966;BME280;59836;52.132;5.442;2023-11-19T06:40:21;100758.53;;;10.45;100.00
71966;BME280;59836;52.132;5.442;2023-11-19T06:42:47;100758.25;;;10.46;100.00
71966;BME280;59836;52.132;5.442;2023-11-19T06:45:14;100759.59;;;10.44;100.00
71966;BME280;59836;52.132;5.442;2023-11-19T06:47:40;100764.22;;;10.43;100.00
71966;BME280;59836;52.132;5.442;2023-11-19T06:50:07;100768.03;;;10.42;100.00
71966;BME280;59836;52.132;5.442;2023-11-19T06:52:35;100775.31;;;10.42;100.00
71966;BME280;59836;52.132;5.442;2023-11-19T06:55:04;100773.44;;;10.42;100.00
71966;BME280;59836;52.132;5.442;2023-11-19T06:57:34;100767.19;;;10.42;100.00
71966;BME280;59836;52.132;5.442;2023-11-19T07:00:01;100769.91;;;10.42;100.00
71966;BME280;59836;52.132;5.442;2023-11-19T07:02:27;100776.41;;;10.41;100.00
71966;BME280;59836;52.132;5.442;2023-11-19T07:04:54;100779.13;;;10.41;100.00
71966;BME280;59836;52.132;5.442;2023-11-19T07:07:21;100782.38;;;10.43;100.00
71966;BME280;59836;52.132;5.442;2023-11-19T07:09:47;100781.84;;;10.41;100.00
71966;BME280;59836;52.132;5.442;2023-11-19T07:12:14;100785.38;;;10.41;100.00
71966;BME280;59836;52.132;5.442;2023-11-19T07:14:40;100787.25;;;10.41;100.00
71966;BME280;59836;52.132;5.442;2023-11-19T07:17:08;100782.91;;;10.40;100.00
71966;BME280;59836;52.132;5.442;2023-11-19T07:19:37;100785.63;;;10.40;100.00
71966;BME280;59836;52.132;5.442;2023-11-19T07:22:06;100794.59;;;10.40;100.00
71966;BME280;59836;52.132;5.442;2023-11-19T07:24:33;100802.16;;;10.38;100.00
71966;BME280;59836;52.132;5.442;2023-11-19T07:27:00;100804.59;;;10.40;100.00
71966;BME280;59836;52.132;5.442;2023-11-19T07:29:34;100809.78;;;10.41;100.00
71966;BME280;59836;52.132;5.442;2023-11-19T07:32:04;100806.22;;;10.41;100.00
71966;BME280;59836;52.132;5.442;2023-11-19T07:34:32;100810.84;;;10.40;100.00
71966;BME280;59836;52.132;5.442;2023-11-19T07:37:11;100810.03;;;10.40;100.00
71966;BME280;59836;52.132;5.442;2023-11-19T07:39:38;100799.72;;;10.42;100.00
71966;BME280;59836;52.132;5.442;2023-11-19T07:42:07;100805.16;;;10.42;100.00
71966;BME280;59836;52.132;5.442;2023-11-19T07:44:36;100805.16;;;10.42;100.00
71966;BME280;59836;52.132;5.442;2023-11-19T07:47:06;100802.72;;;10.40;100.00
71966;BME280;59836;52.132;5.442;2023-11-19T07:49:32;100808.94;;;10.41;100.00
71966;BME280;59836;52.132;5.442;2023-11-19T07:51:59;100806.50;;;10.39;100.00
71966;BME280;59836;52.132;5.442;2023-11-19T07:54:26;100815.44;;;10.40;100.00
71966;BME280;59836;52.132;5.442;2023-11-19T07:56:52;100808.16;;;10.40;100.00
71966;BME280;59836;52.132;5.442;2023-11-19T07:59:19;100807.88;;;10.42;100.00
71966;BME280;59836;52.132;5.442;2023-11-19T08:01:46;100803.28;;;10.42;100.00
71966;BME280;59836;52.132;5.442;2023-11-19T08:04:12;100801.34;;;10.43;100.00
71966;BME280;59836;52.132;5.442;2023-11-19T08:06:39;100801.09;;;10.44;100.00
71966;BME280;59836;52.132;5.442;2023-11-19T08:09:06;100803.81;;;10.44;100.00
71966;BME280;59836;52.132;5.442;2023-11-19T08:11:33;100803.81;;;10.44;100.00
71966;BME280;59836;52.132;5.442;2023-11-19T08:14:00;100807.31;;;10.45;100.00
71966;BME280;59836;52.132;5.442;2023-11-19T08:16:26;100800.81;;;10.46;100.00
71966;BME280;59836;52.132;5.442;2023-11-19T08:18:53;100804.34;;;10.46;100.00
71966;BME280;59836;52.132;5.442;2023-11-19T08:21:20;100811.41;;;10.47;100.00
71966;BME280;59836;52.132;5.442;2023-11-19T08:23:48;100809.50;;;10.48;100.00
71966;BME280;59836;52.132;5.442;2023-11-19T08:26:15;100801.91;;;10.50;100.00
71966;BME280;59836;52.132;5.442;2023-11-19T08:28:46;100809.78;;;10.52;100.00
71966;BME280;59836;52.132;5.442;2023-11-19T08:31:13;100806.00;;;10.53;100.00
71966;BME280;59836;52.132;5.442;2023-11-19T08:33:40;100801.38;;;10.53;100.00
71966;BME280;59836;52.132;5.442;2023-11-19T08:36:09;100809.78;;;10.57;100.00
71966;BME280;59836;52.132;5.442;2023-11-19T08:38:49;100817.66;;;10.58;100.00
71966;BME280;59836;52.132;5.442;2023-11-19T08:41:26;100821.69;;;10.61;100.00
71966;BME280;59836;52.132;5.442;2023-11-19T08:43:54;100812.75;;;10.60;100.00
71966;BME280;59836;52.132;5.442;2023-11-19T08:46:30;100824.16;;;10.62;100.00
71966;BME280;59836;52.132;5.442;2023-11-19T08:49:17;100817.66;;;10.63;100.00
71966;BME280;59836;52.132;5.442;2023-11-19T08:51:45;100821.97;;;10.65;100.00
71966;BME280;59836;52.132;5.442;2023-11-19T08:54:12;100824.41;;;10.66;100.00
71966;BME280;59836;52.132;5.442;2023-11-19T08:56:39;100820.63;;;10.67;100.00
71966;BME280;59836;52.132;5.442;2023-11-19T08:59:06;100820.38;;;10.69;100.00
71966;BME280;59836;52.132;5.442;2023-11-19T09:01:32;100820.38;;;10.69;100.00
71966;BME280;59836;52.132;5.442;2023-11-19T09:03:59;100829.84;;;10.71;100.00
71966;BME280;59836;52.132;5.442;2023-11-19T09:06:32;100821.16;;;10.74;100.00
71966;BME280;59836;52.132;5.442;2023-11-19T09:09:01;100820.91;;;10.76;100.00
71966;BME280;59836;52.132;5.442;2023-11-19T09:11:29;100814.94;;;10.79;100.00
71966;BME280;59836;52.132;5.442;2023-11-19T09:13:56;100829.03;;;10.81;100.00
71966;BME280;59836;52.132;5.442;2023-11-19T09:16:28;100822.53;;;10.82;100.00
71966;BME280;59836;52.132;5.442;2023-11-19T09:18:54;100821.44;;;10.83;100.00
71966;BME280;59836;52.132;5.442;2023-11-19T09:21:21;100814.66;;;10.86;100.00
71966;BME280;59836;52.132;5.442;2023-11-19T09:23:47;100813.31;;;10.88;100.00
71966;BME280;59836;52.132;5.442;2023-11-19T09:26:15;100826.34;;;10.91;100.00
71966;BME280;59836;52.132;5.442;2023-11-19T09:28:42;100820.91;;;10.91;100.00
71966;BME280;59836;52.132;5.442;2023-11-19T09:31:17;100822.53;;;10.92;100.00
71966;BME280;59836;52.132;5.442;2023-11-19T09:33:45;100815.19;;;10.93;100.00
71966;BME280;59836;52.132;5.442;2023-11-19T09:36:12;100813.31;;;10.93;100.00
71966;BME280;59836;52.132;5.442;2023-11-19T09:38:43;100817.66;;;10.95;100.00
71966;BME280;59836;52.132;5.442;2023-11-19T09:41:10;100819.28;;;10.96;100.00
71966;BME280;59836;52.132;5.442;2023-11-19T09:43:40;100810.03;;;10.97;100.00
71966;BME280;59836;52.132;5.442;2023-11-19T09:46:12;100818.72;;;10.99;100.00
71966;BME280;59836;52.132;5.442;2023-11-19T09:48:40;100821.16;;;11.00;100.00
71966;BME280;59836;52.132;5.442;2023-11-19T09:51:07;100810.03;;;11.02;100.00
71966;BME280;59836;52.132;5.442;2023-11-19T09:53:35;100808.97;;;11.03;100.00
71966;BME280;59836;52.132;5.442;2023-11-19T09:56:04;100811.38;;;11.04;100.00
71966;BME280;59836;52.132;5.442;2023-11-19T09:58:31;100798.66;;;11.05;100.00
71966;BME280;59836;52.132;5.442;2023-11-19T10:00:59;100797.56;;;11.06;100.00
71966;BME280;59836;52.132;5.442;2023-11-19T10:03:47;100803.53;;;11.08;100.00
71966;BME280;59836;52.132;5.442;2023-11-19T10:06:14;100801.91;;;11.07;100.00
71966;BME280;59836;52.132;5.442;2023-11-19T10:08:43;100807.03;;;11.08;100.00
71966;BME280;59836;52.132;5.442;2023-11-19T10:11:10;100797.53;;;11.11;100.00
71966;BME280;59836;52.132;5.442;2023-11-19T10:13:40;100800.50;;;11.15;100.00
71966;BME280;59836;52.132;5.442;2023-11-19T10:16:09;100790.44;;;11.15;100.00
71966;BME280;59836;52.132;5.442;2023-11-19T10:18:43;100779.03;;;11.18;100.00
71966;BME280;59836;52.132;5.442;2023-11-19T10:21:12;100783.94;;;11.21;100.00
71966;BME280;59836;52.132;5.442;2023-11-19T10:23:50;100785.28;;;11.24;100.00
71966;BME280;59836;52.132;5.442;2023-11-19T10:26:19;100776.84;;;11.31;100.00
71966;BME280;59836;52.132;5.442;2023-11-19T10:28:49;100776.81;;;11.36;100.00
71966;BME280;59836;52.132;5.442;2023-11-19T10:31:17;100773.56;;;11.39;100.00
71966;BME280;59836;52.132;5.442;2023-11-19T10:33:44;100777.09;;;11.45;100.00
71966;BME280;59836;52.132;5.442;2023-11-19T10:36:12;100785.78;;;11.47;100.00
71966;BME280;59836;52.132;5.442;2023-11-19T10:38:39;100785.22;;;11.50;100.00
71966;BME280;59836;52.132;5.442;2023-11-19T10:41:07;100772.97;;;11.52;100.00
71966;BME280;59836;52.132;5.442;2023-11-19T10:43:43;100762.66;;;11.55;100.00
71966;BME280;59836;52.132;5.442;2023-11-19T10:46:13;100772.41;;;11.56;100.00
71966;BME280;59836;52.132;5.442;2023-11-19T10:48:40;100777.28;;;11.59;100.00
71966;BME280;59836;52.132;5.442;2023-11-19T10:51:07;100772.41;;;11.61;100.00
71966;BME280;59836;52.132;5.442;2023-11-19T10:53:38;100773.75;;;11.63;100.00
71966;BME280;59836;52.132;5.442;2023-11-19T10:56:11;100779.72;;;11.65;100.00
71966;BME280;59836;52.132;5.442;2023-11-19T10:58:44;100768.56;;;11.67;100.00
71966;BME280;59836;52.132;5.442;2023-11-19T11:01:13;100767.72;;;11.72;100.00
71966;BME280;59836;52.132;5.442;2023-11-19T11:03:42;100763.66;;;11.74;100.00
71966;BME280;59836;52.132;5.442;2023-11-19T11:06:10;100765.28;;;11.75;100.00
71966;BME280;59836;52.132;5.442;2023-11-19T11:08:37;100773.97;;;11.77;100.00
71966;BME280;59836;52.132;5.442;2023-11-19T11:11:06;100782.63;;;11.79;100.00
71966;BME280;59836;52.132;5.442;2023-11-19T11:13:33;100788.06;;;11.79;100.00
71966;BME280;59836;52.132;5.442;2023-11-19T11:16:02;100784.25;;;11.80;100.00
71966;BME280;59836;52.132;5.442;2023-11-19T11:18:31;100781.56;;;11.80;100.00
71966;BME280;59836;52.132;5.442;2023-11-19T11:21:14;100780.47;;;11.81;100.00
71966;BME280;59836;52.132;5.442;2023-11-19T11:24:00;100781.00;;;11.84;100.00
71966;BME280;59836;52.132;5.442;2023-11-19T11:32:04;100764.16;;;11.81;100.00
71966;BME280;59836;52.132;5.442;2023-11-19T11:37:36;100767.13;;;11.80;100.00
71966;BME280;59836;52.132;5.442;2023-11-19T11:40:05;100771.22;;;11.82;100.00
71966;BME280;59836;52.132;5.442;2023-11-19T11:42:36;100767.41;;;11.84;100.00
71966;BME280;59836;52.132;5.442;2023-11-19T11:45:07;100773.09;;;11.82;100.00
71966;BME280;59836;52.132;5.442;2023-11-19T11:50:11;100765.78;;;11.82;100.00
71966;BME280;59836;52.132;5.442;2023-11-19T11:55:35;100766.56;;;11.83;100.00
71966;BME280;59836;52.132;5.442;2023-11-19T11:58:05;100760.34;;;11.82;100.00
71966;BME280;59836;52.132;5.442;2023-11-19T12:00:33;100761.97;;;11.84;100.00
71966;BME280;59836;52.132;5.442;2023-11-19T12:03:05;100756.81;;;11.82;100.00
71966;BME280;59836;52.132;5.442;2023-11-19T12:05:33;100742.41;;;11.81;100.00
71966;BME280;59836;52.132;5.442;2023-11-19T12:08:04;100757.09;;;11.80;100.00
71966;BME280;59836;52.132;5.442;2023-11-19T12:10:37;100747.84;;;11.81;100.00
71966;BME280;59836;52.132;5.442;2023-11-19T12:13:09;100729.91;;;11.80;100.00
71966;BME280;59836;52.132;5.442;2023-11-19T12:18:27;100749.50;;;11.77;100.00
71966;BME280;59836;52.132;5.442;2023-11-19T12:20:54;100747.84;;;11.81;100.00
71966;BME280;59836;52.132;5.442;2023-11-19T12:23:21;100736.16;;;11.81;100.00
71966;BME280;59836;52.132;5.442;2023-11-19T12:25:48;100731.53;;;11.81;100.00
71966;BME280;59836;52.132;5.442;2023-11-19T12:28:15;100736.97;;;11.81;100.00
71966;BME280;59836;52.132;5.442;2023-11-19T12:30:43;100729.91;;;11.80;100.00
71966;BME280;59836;52.132;5.442;2023-11-19T12:33:11;100745.41;;;11.80;100.00
71966;BME280;59836;52.132;5.442;2023-11-19T12:35:42;100747.31;;;11.79;100.00
71966;BME280;59836;52.132;5.442;2023-11-19T12:38:22;100745.69;;;11.78;100.00
71966;BME280;59836;52.132;5.442;2023-11-19T12:41:08;100751.13;;;11.78;100.00
71966;BME280;59836;52.132;5.442;2023-11-19T12:43:38;100752.22;;;11.77;100.00
71966;BME280;59836;52.132;5.442;2023-11-19T12:46:20;100753.84;;;11.78;100.00
71966;BME280;59836;52.132;5.442;2023-11-19T12:48:48;100748.41;;;11.78;100.00
71966;BME280;59836;52.132;5.442;2023-11-19T12:51:16;100750.84;;;11.80;100.00
71966;BME280;59836;52.132;5.442;2023-11-19T12:53:50;100751.66;;;11.80;100.00
71966;BME280;59836;52.132;5.442;2023-11-19T12:56:18;100736.97;;;11.81;100.00
71966;BME280;59836;52.132;5.442;2023-11-19T12:58:45;100742.41;;;11.81;100.00
71966;BME280;59836;52.132;5.442;2023-11-19T13:01:16;100732.63;;;11.80;100.00
71966;BME280;59836;52.132;5.442;2023-11-19T13:03:43;100744.03;;;11.82;100.00
71966;BME280;59836;52.132;5.442;2023-11-19T13:06:12;100738.59;;;11.82;100.00
71966;BME280;59836;52.132;5.442;2023-11-19T13:08:40;100744.84;;;11.83;100.00